createdAt,value
2018-10-11T00:00:01.179Z,9.73
2018-10-11T00:02:30.356Z,9.40
2018-10-11T00:04:59.679Z,9.60
2018-10-11T00:07:28.719Z,9.17
2018-10-11T00:09:57.769Z,9.83
2018-10-11T00:12:27.008Z,10.23
2018-10-11T00:14:56.163Z,9.80
2018-10-11T00:17:25.345Z,10.27
2018-10-11T00:19:54.815Z,10.63
2018-10-11T00:22:24.144Z,9.80
2018-10-11T00:24:53.504Z,9.23
2018-10-11T00:27:22.760Z,9.90
2018-10-11T00:29:51.831Z,9.93
2018-10-11T00:32:21.084Z,9.87
2018-10-11T00:34:50.259Z,10.00
2018-10-11T00:37:19.435Z,10.23
2018-10-11T00:39:48.483Z,10.40
2018-10-11T00:42:17.566Z,10.33
2018-10-11T00:44:46.873Z,10.77
2018-10-11T00:47:16.069Z,9.90
2018-10-11T00:49:45.237Z,10.27
2018-10-11T00:52:14.458Z,10.60
2018-10-11T00:54:43.708Z,10.27
2018-10-11T00:57:12.947Z,10.90
2018-10-11T00:59:42.199Z,10.30
2018-10-11T01:02:11.136Z,10.90
2018-10-11T01:04:40.576Z,10.70
2018-10-11T01:07:10.215Z,10.57
2018-10-11T01:09:39.596Z,11.10
2018-10-11T01:12:09.032Z,11.10
2018-10-11T01:14:38.212Z,9.40
2018-10-11T01:17:07.267Z,10.10
2018-10-11T01:19:36.515Z,11.17
2018-10-11T01:22:05.551Z,9.53
2018-10-11T01:24:34.891Z,10.30
2018-10-11T01:27:04.179Z,10.90
2018-10-11T01:29:33.291Z,11.33
2018-10-11T01:32:02.528Z,10.47
2018-10-11T01:34:31.767Z,10.27
2018-10-11T01:37:00.911Z,11.00
2018-10-11T01:39:29.836Z,10.60
2018-10-11T01:41:59.039Z,10.03
2018-10-11T01:44:28.511Z,10.63
2018-10-11T01:46:57.580Z,11.33
2018-10-11T01:49:26.911Z,11.07
2018-10-11T01:51:56.310Z,10.57
2018-10-11T01:54:25.604Z,11.87
2018-10-11T01:56:54.702Z,11.40
2018-10-11T01:59:23.610Z,11.13
2018-10-11T02:01:52.609Z,11.23
2018-10-11T02:04:21.680Z,11.33
2018-10-11T02:06:50.883Z,11.57
2018-10-11T02:09:19.805Z,12.20
2018-10-11T02:11:49.162Z,11.77
2018-10-11T02:14:18.263Z,13.07
2018-10-11T02:16:47.114Z,12.07
2018-10-11T02:19:16.263Z,11.87
2018-10-11T02:21:45.394Z,11.53
2018-10-11T02:24:14.797Z,11.93
2018-10-11T02:26:44.031Z,11.53
2018-10-11T02:29:12.852Z,13.63
2018-10-11T02:31:42.184Z,19.80
2018-10-11T02:34:11.560Z,21.20
2018-10-11T02:36:40.523Z,17.17
2018-10-11T02:39:10.673Z,17.33
2018-10-11T02:41:39.835Z,14.63
2018-10-11T02:44:09.035Z,13.17
2018-10-11T02:46:38.322Z,12.07
2018-10-11T02:49:07.532Z,11.83
2018-10-11T02:51:36.391Z,11.60
2018-10-11T02:54:06.752Z,10.93
2018-10-11T02:56:35.722Z,11.23
2018-10-11T02:59:15.491Z,11.07
2018-10-11T03:01:44.823Z,10.97
2018-10-11T03:04:14.328Z,11.10
2018-10-11T03:06:43.899Z,12.00
2018-10-11T03:09:13.299Z,11.27
2018-10-11T03:11:42.564Z,11.77
2018-10-11T03:14:11.883Z,11.73
2018-10-11T03:16:41.209Z,12.80
2018-10-11T03:19:10.275Z,12.03
2018-10-11T03:21:39.453Z,12.03
2018-10-11T03:24:08.640Z,12.13
2018-10-11T03:26:37.979Z,12.77
2018-10-11T03:29:06.879Z,12.67
2018-10-11T03:31:35.811Z,13.50
2018-10-11T03:34:04.906Z,13.70
2018-10-11T03:36:34.002Z,12.60
2018-10-11T03:39:03.451Z,13.20
2018-10-11T03:41:32.588Z,13.23
2018-10-11T03:44:01.900Z,13.93
2018-10-11T03:46:31.268Z,13.33
2018-10-11T03:49:00.484Z,13.60
2018-10-11T03:51:30.084Z,14.07
2018-10-11T03:53:59.082Z,14.20
2018-10-11T03:56:28.195Z,14.07
2018-10-11T03:58:57.647Z,14.07
2018-10-11T04:01:26.968Z,14.63
2018-10-11T04:03:56.831Z,16.17
2018-10-11T04:06:25.722Z,17.20
2018-10-11T04:08:55.287Z,15.83
2018-10-11T04:11:24.538Z,19.83
2018-10-11T04:13:53.711Z,17.43
2018-10-11T04:16:22.847Z,15.20
2018-10-11T04:18:52.000Z,14.53
2018-10-11T04:21:21.201Z,13.87
2018-10-11T04:23:50.499Z,14.77
2018-10-11T04:26:19.831Z,15.50
2018-10-11T04:28:49.100Z,15.27
2018-10-11T04:31:18.368Z,15.10
2018-10-11T04:33:47.464Z,15.60
2018-10-11T04:36:16.658Z,14.37
2018-10-11T04:38:45.557Z,13.97
2018-10-11T04:41:14.924Z,14.03
2018-10-11T04:43:44.111Z,13.40
2018-10-11T04:46:13.107Z,12.67
2018-10-11T04:48:42.391Z,12.60
2018-10-11T04:51:11.396Z,12.87
2018-10-11T04:53:40.629Z,13.20
2018-10-11T04:56:09.756Z,12.17
2018-10-11T04:58:38.750Z,12.40
2018-10-11T05:01:08.026Z,11.63
2018-10-11T05:03:37.358Z,12.80
2018-10-11T05:06:06.507Z,12.43
2018-10-11T05:08:36.127Z,11.87
2018-10-11T05:11:05.576Z,11.87
2018-10-11T05:13:41.411Z,11.47
2018-10-11T05:16:10.688Z,11.33
2018-10-11T05:18:41.110Z,11.50
2018-10-11T05:21:10.360Z,12.23
2018-10-11T05:23:40.085Z,10.93
2018-10-11T05:26:09.537Z,11.30
2018-10-11T05:28:38.448Z,11.67
2018-10-11T05:31:07.656Z,12.43
2018-10-11T05:33:36.868Z,11.13
2018-10-11T05:36:05.951Z,11.90
2018-10-11T05:38:35.179Z,15.17
2018-10-11T05:41:04.647Z,18.43
2018-10-11T05:43:33.776Z,23.83
2018-10-11T05:46:04.379Z,30.33
2018-10-11T05:48:34.323Z,30.13
2018-10-11T05:51:04.609Z,29.00
2018-10-11T05:53:33.917Z,18.10
2018-10-11T05:56:03.231Z,16.10
2018-10-11T05:58:32.520Z,12.73
2018-10-11T06:01:01.775Z,14.87
2018-10-11T06:03:30.953Z,14.90
2018-10-11T06:05:59.890Z,15.83
2018-10-11T06:08:29.027Z,12.80
2018-10-11T06:10:58.488Z,12.43
2018-10-11T06:13:27.693Z,13.10
2018-10-11T06:15:56.996Z,12.50
2018-10-11T06:18:26.256Z,12.50
2018-10-11T06:20:55.584Z,11.77
2018-10-11T06:23:24.504Z,12.27
2018-10-11T06:25:53.548Z,14.23
2018-10-11T06:28:22.976Z,14.23
2018-10-11T06:30:52.740Z,14.63
2018-10-11T06:33:22.179Z,14.77
2018-10-11T06:35:51.571Z,13.67
2018-10-11T06:38:20.719Z,15.07
2018-10-11T06:40:50.060Z,16.03
2018-10-11T06:43:19.264Z,14.43
2018-10-11T06:45:48.709Z,14.50
2018-10-11T06:48:18.085Z,12.93
2018-10-11T06:50:47.453Z,13.60
2018-10-11T06:53:16.724Z,13.90
2018-10-11T06:55:45.723Z,12.97
2018-10-11T06:58:14.664Z,12.73
2018-10-11T07:00:43.975Z,12.83
2018-10-11T07:03:12.807Z,13.00
2018-10-11T07:05:42.162Z,14.33
2018-10-11T07:08:11.068Z,12.77
2018-10-11T07:10:39.884Z,12.27
2018-10-11T07:13:09.072Z,12.87
2018-10-11T07:15:38.427Z,13.40
2018-10-11T07:18:07.682Z,12.57
2018-10-11T07:20:36.919Z,13.10
2018-10-11T07:23:06.241Z,16.77
2018-10-11T07:25:35.519Z,17.37
2018-10-11T07:28:04.731Z,14.37
2018-10-11T07:30:33.836Z,12.20
2018-10-11T07:33:03.124Z,12.43
2018-10-11T07:35:32.414Z,13.23
2018-10-11T07:38:01.320Z,17.17
2018-10-11T07:40:30.583Z,21.07
2018-10-11T07:42:59.855Z,17.53
2018-10-11T07:45:28.829Z,13.07
2018-10-11T07:47:58.120Z,12.40
2018-10-11T07:50:26.961Z,11.10
2018-10-11T07:52:56.147Z,11.03
2018-10-11T07:55:25.395Z,10.47
2018-10-11T07:57:54.576Z,10.20
2018-10-11T08:00:23.931Z,11.57
2018-10-11T08:02:53.279Z,11.10
2018-10-11T08:05:22.571Z,10.80
2018-10-11T08:07:51.628Z,11.10
2018-10-11T08:10:20.733Z,11.60
2018-10-11T08:12:49.773Z,11.40
2018-10-11T08:15:18.923Z,12.33
2018-10-11T08:17:48.400Z,11.33
2018-10-11T08:20:17.136Z,11.60
2018-10-11T08:22:46.261Z,11.70
2018-10-11T08:25:15.362Z,11.80
2018-10-11T08:27:44.396Z,11.30
2018-10-11T08:30:13.601Z,11.63
2018-10-11T08:32:43.010Z,13.80
2018-10-11T08:35:12.056Z,21.77
2018-10-11T08:37:41.324Z,21.63
2018-10-11T08:40:10.454Z,18.47
2018-10-11T08:42:39.600Z,14.57
2018-10-11T08:45:08.803Z,15.57
2018-10-11T08:47:38.040Z,19.70
2018-10-11T08:50:07.295Z,19.60
2018-10-11T08:52:36.512Z,18.53
2018-10-11T08:55:05.568Z,19.53
2018-10-11T08:57:34.766Z,23.17
2018-10-11T09:00:04.000Z,18.93
2018-10-11T09:02:33.224Z,16.33
2018-10-11T09:05:02.487Z,15.63
2018-10-11T09:07:31.368Z,14.13
2018-10-11T09:10:00.380Z,13.80
2018-10-11T09:12:29.555Z,13.90
2018-10-11T09:14:58.794Z,13.23
2018-10-11T09:17:28.055Z,12.90
2018-10-11T09:19:57.286Z,12.57
2018-10-11T09:22:26.296Z,16.43
2018-10-11T09:24:55.550Z,10.50
2018-10-11T09:27:24.692Z,10.70
2018-10-11T09:29:53.891Z,10.40
2018-10-11T09:32:22.916Z,10.43
2018-10-11T09:34:52.167Z,10.30
2018-10-11T09:37:21.647Z,10.70
2018-10-11T09:39:50.586Z,11.47
2018-10-11T09:42:19.923Z,10.57
2018-10-11T09:44:49.293Z,10.47
2018-10-11T09:47:18.622Z,10.57
2018-10-11T09:49:47.816Z,10.17
2018-10-11T09:52:17.088Z,10.07
2018-10-11T09:54:46.173Z,10.50
2018-10-11T09:57:20.296Z,10.50
2018-10-11T09:59:49.630Z,10.13
2018-10-11T10:02:18.514Z,10.10
2018-10-11T10:04:49.764Z,9.57
2018-10-11T10:07:18.731Z,13.00
2018-10-11T10:09:48.311Z,13.93
2018-10-11T10:12:17.811Z,12.33
2018-10-11T10:14:47.672Z,11.87
2018-10-11T10:17:16.927Z,10.87
2018-10-11T10:19:46.390Z,10.50
2018-10-11T10:22:15.820Z,11.27
2018-10-11T10:24:45.000Z,13.00
2018-10-11T10:27:14.452Z,11.23
2018-10-11T10:29:43.741Z,11.40
2018-10-11T10:32:12.781Z,11.37
2018-10-11T10:34:42.011Z,11.33
2018-10-11T10:37:11.368Z,10.53
2018-10-11T10:39:40.522Z,10.03
2018-10-11T10:42:09.734Z,10.50
2018-10-11T10:44:39.104Z,9.80
2018-10-11T10:47:08.447Z,9.40
2018-10-11T10:49:37.376Z,9.30
2018-10-11T10:52:06.735Z,10.00
2018-10-11T10:54:36.366Z,11.23
2018-10-11T10:57:06.179Z,10.80
2018-10-11T10:59:35.426Z,9.70
2018-10-11T11:02:04.724Z,9.77
2018-10-11T11:04:34.059Z,8.67
2018-10-11T11:07:03.363Z,9.23
2018-10-11T11:09:32.224Z,8.63
2018-10-11T11:12:01.407Z,8.93
2018-10-11T11:14:30.617Z,8.77
2018-10-11T11:16:59.760Z,8.37
2018-10-11T11:19:29.041Z,8.27
2018-10-11T11:21:58.379Z,9.03
2018-10-11T11:24:27.475Z,7.70
2018-10-11T11:26:56.466Z,7.70
2018-10-11T11:29:25.663Z,7.73
2018-10-11T11:31:54.911Z,9.03
2018-10-11T11:34:24.115Z,8.00
2018-10-11T11:36:53.380Z,8.63
2018-10-11T11:39:22.550Z,7.60
2018-10-11T11:41:51.510Z,7.27
2018-10-11T11:44:20.791Z,7.90
2018-10-11T11:46:50.112Z,8.43
2018-10-11T11:49:19.251Z,8.07
2018-10-11T11:51:48.299Z,8.67
2018-10-11T11:54:19.839Z,7.60
2018-10-11T11:56:49.396Z,7.57
2018-10-11T11:59:18.304Z,7.93
2018-10-11T12:01:47.491Z,6.57
2018-10-11T12:04:16.735Z,7.17
2018-10-11T12:06:45.815Z,7.00
2018-10-11T12:09:15.447Z,6.60
2018-10-11T12:11:44.736Z,6.03
2018-10-11T12:14:13.967Z,6.40
2018-10-11T12:16:43.196Z,6.17
2018-10-11T12:19:12.619Z,5.65
2018-10-11T12:21:42.066Z,5.83
2018-10-11T12:24:11.282Z,5.62
2018-10-11T12:26:40.515Z,5.95
2018-10-11T12:29:09.839Z,5.78
2018-10-11T12:31:39.141Z,6.07
2018-10-11T12:34:08.386Z,6.70
2018-10-11T12:36:37.658Z,5.97
2018-10-11T12:39:08.879Z,5.77
2018-10-11T12:41:38.040Z,7.00
2018-10-11T12:44:07.431Z,13.03
2018-10-11T12:46:38.164Z,14.80
2018-10-11T12:49:05.866Z,6.80
2018-10-11T12:51:34.868Z,6.30
2018-10-11T12:54:04.094Z,7.07
2018-10-11T12:56:33.061Z,9.23
2018-10-11T12:59:02.501Z,14.10
2018-10-11T13:01:31.713Z,13.03
2018-10-11T13:04:00.935Z,10.43
2018-10-11T13:06:30.112Z,10.20
2018-10-11T13:08:59.327Z,8.90
2018-10-11T13:11:28.743Z,8.47
2018-10-11T13:13:57.919Z,6.93
2018-10-11T13:16:27.347Z,6.97
2018-10-11T13:18:56.743Z,7.93
2018-10-11T13:21:25.723Z,8.10
2018-10-11T13:23:54.919Z,8.23
2018-10-11T13:26:23.987Z,9.53
2018-10-11T13:28:53.267Z,8.47
2018-10-11T13:31:22.396Z,8.03
2018-10-11T13:33:52.997Z,8.90
2018-10-11T13:36:21.015Z,7.57
2018-10-11T13:38:50.410Z,8.00
2018-10-11T13:41:19.732Z,8.13
2018-10-11T13:43:49.107Z,8.30
2018-10-11T13:46:18.412Z,7.73
2018-10-11T13:48:47.817Z,8.00
2018-10-11T13:51:17.018Z,7.87
2018-10-11T13:53:49.946Z,8.90
2018-10-11T13:56:15.510Z,9.20
2018-10-11T13:58:44.850Z,7.00
2018-10-11T14:01:14.253Z,8.10
2018-10-11T14:03:43.612Z,11.40
2018-10-11T14:06:12.910Z,11.13
2018-10-11T14:08:42.279Z,11.07
2018-10-11T14:11:11.309Z,13.73
2018-10-11T14:13:40.961Z,11.13
2018-10-11T14:16:10.053Z,10.27
2018-10-11T14:18:39.779Z,10.43
2018-10-11T14:21:09.938Z,8.10
2018-10-11T14:23:39.369Z,10.43
2018-10-11T14:26:09.071Z,7.50
2018-10-11T14:28:37.912Z,7.10
2018-10-11T14:31:07.168Z,7.40
2018-10-11T14:33:36.288Z,7.30
2018-10-11T14:36:05.631Z,7.43
2018-10-11T14:38:34.919Z,6.97
2018-10-11T14:41:03.851Z,6.23
2018-10-11T14:43:33.401Z,6.43
2018-10-11T14:46:02.752Z,6.63
2018-10-11T14:48:32.424Z,6.93
2018-10-11T14:51:02.347Z,7.20
2018-10-11T14:53:31.635Z,7.77
2018-10-11T14:56:00.834Z,8.10
2018-10-11T14:58:30.158Z,7.67
2018-10-11T15:00:59.278Z,7.73
2018-10-11T15:03:28.618Z,8.80
2018-10-11T15:05:57.932Z,8.50
2018-10-11T15:08:27.084Z,8.23
2018-10-11T15:10:56.224Z,9.43
2018-10-11T15:13:25.419Z,9.87
2018-10-11T15:15:54.726Z,9.77
2018-10-11T15:18:23.906Z,9.43
2018-10-11T15:20:53.576Z,10.50
2018-10-11T15:23:22.692Z,11.13
2018-10-11T15:25:51.890Z,11.40
2018-10-11T15:28:21.080Z,14.33
2018-10-11T15:30:50.159Z,11.97
2018-10-11T15:33:19.150Z,11.83
2018-10-11T15:35:48.225Z,12.27
2018-10-11T15:38:17.619Z,11.87
2018-10-11T15:40:46.778Z,12.57
2018-10-11T15:43:16.040Z,12.17
2018-10-11T15:45:45.340Z,11.37
2018-10-11T15:48:14.687Z,11.87
2018-10-11T15:50:43.848Z,11.60
2018-10-11T15:53:13.765Z,11.93
2018-10-11T15:55:43.012Z,10.00
2018-10-11T16:17:50.746Z,18.40
2018-10-11T16:20:20.142Z,16.43
2018-10-11T16:22:49.292Z,16.50
2018-10-11T16:25:18.409Z,14.47
2018-10-11T16:27:47.777Z,14.90
2018-10-11T16:30:19.903Z,14.23
2018-10-11T16:32:48.895Z,13.37
2018-10-11T16:35:18.039Z,14.17
2018-10-11T16:37:47.400Z,14.90
2018-10-11T16:40:16.471Z,14.43
2018-10-11T16:42:45.817Z,14.60
2018-10-11T16:45:14.875Z,16.07
2018-10-11T16:47:44.326Z,18.57
2018-10-11T16:50:13.925Z,17.60
2018-10-11T16:52:43.143Z,20.33
2018-10-11T16:55:12.455Z,19.87
2018-10-11T16:57:42.340Z,16.87
2018-10-11T17:00:11.387Z,15.67
2018-10-11T17:02:41.106Z,15.03
2018-10-11T17:05:10.508Z,14.20
2018-10-11T17:07:39.527Z,14.67
2018-10-11T17:10:08.873Z,12.93
2018-10-11T17:12:38.310Z,13.77
2018-10-11T17:15:08.785Z,14.23
2018-10-11T17:17:38.228Z,13.13
2018-10-11T17:20:07.642Z,13.83
2018-10-11T17:22:37.026Z,14.50
2018-10-11T17:25:05.991Z,16.37
2018-10-11T17:27:35.357Z,16.87
2018-10-11T17:30:04.440Z,17.43
2018-10-11T17:32:33.679Z,16.03
2018-10-11T17:35:03.103Z,16.10
2018-10-11T17:37:32.731Z,15.73
2018-10-11T17:40:02.187Z,14.67
2018-10-11T17:42:31.384Z,14.93
2018-10-11T17:45:00.299Z,15.23
2018-10-11T17:47:29.373Z,15.87
2018-10-11T17:49:58.374Z,18.87
2018-10-11T17:52:28.525Z,18.53
2018-10-11T17:54:58.646Z,15.80
2018-10-11T17:57:28.147Z,15.43
2018-10-11T17:59:58.085Z,14.67
2018-10-11T18:02:27.338Z,16.53
2018-10-11T18:04:56.720Z,16.83
2018-10-11T18:07:26.016Z,18.03
2018-10-11T18:09:55.309Z,19.03
2018-10-11T18:12:24.435Z,15.73
2018-10-11T18:14:53.756Z,13.67
2018-10-11T18:17:23.022Z,12.07
2018-10-11T18:19:52.775Z,12.13
2018-10-11T18:22:21.876Z,17.87
2018-10-11T18:24:51.152Z,12.73
2018-10-11T18:27:20.311Z,11.37
2018-10-11T18:29:49.555Z,15.70
2018-10-11T18:32:18.613Z,22.33
2018-10-11T18:34:47.950Z,17.63
2018-10-11T18:37:16.997Z,16.20
2018-10-11T18:39:46.342Z,15.27
2018-10-11T18:42:15.260Z,14.00
2018-10-11T18:44:44.939Z,15.10
2018-10-11T18:47:14.964Z,14.53
2018-10-11T18:49:44.311Z,15.33
2018-10-11T18:52:13.305Z,14.47
2018-10-11T18:54:42.491Z,13.07
2018-10-11T18:57:11.656Z,11.57
2018-10-11T18:59:41.009Z,11.07
2018-10-11T19:02:10.247Z,10.90
2018-10-11T19:04:39.342Z,9.70
2018-10-11T19:07:08.300Z,9.67
2018-10-11T19:09:37.524Z,11.17
2018-10-11T19:12:06.677Z,10.57
2018-10-11T19:14:35.803Z,10.43
2018-10-11T19:17:05.127Z,9.50
2018-10-11T19:19:34.463Z,9.27
2018-10-11T19:22:03.653Z,8.53
2018-10-11T19:24:33.164Z,8.50
2018-10-11T19:27:02.471Z,8.23
2018-10-11T19:29:31.495Z,8.67
2018-10-11T19:32:00.815Z,8.07
2018-10-11T19:34:30.195Z,7.53
2018-10-11T19:36:59.307Z,7.77
2018-10-11T19:39:28.397Z,7.17
2018-10-11T19:41:57.503Z,7.27
2018-10-11T19:44:26.772Z,6.57
2018-10-11T19:46:56.093Z,6.33
2018-10-11T19:49:25.284Z,6.10
2018-10-11T19:51:54.260Z,6.10
2018-10-11T19:54:23.620Z,5.77
2018-10-11T19:56:53.390Z,5.90
2018-10-11T19:59:22.446Z,6.07
2018-10-11T20:01:51.770Z,5.90
2018-10-11T20:04:20.868Z,5.40
2018-10-11T20:06:50.071Z,5.67
2018-10-11T20:09:19.324Z,5.70
2018-10-11T20:11:48.659Z,5.53
2018-10-11T20:14:17.771Z,5.97
2018-10-11T20:16:47.058Z,4.93
2018-10-11T20:19:16.306Z,5.60
2018-10-11T20:21:45.667Z,5.70
2018-10-11T20:24:14.654Z,5.63
2018-10-11T20:26:43.696Z,6.33
2018-10-11T20:29:12.835Z,7.10
2018-10-11T20:31:42.095Z,7.57
2018-10-11T20:34:11.198Z,7.87
2018-10-11T20:36:40.536Z,7.90
2018-10-11T20:39:10.483Z,8.77
2018-10-11T20:41:39.955Z,8.90
2018-10-11T20:44:09.032Z,12.87
2018-10-11T20:46:38.075Z,13.33
2018-10-11T20:49:07.435Z,12.20
2018-10-11T20:51:36.681Z,13.33
2018-10-11T20:54:06.030Z,10.73
2018-10-11T20:56:35.251Z,12.27
2018-10-11T20:59:04.395Z,11.93
2018-10-11T21:01:33.557Z,11.27
2018-10-11T21:04:02.658Z,10.50
2018-10-11T21:06:31.627Z,9.20
2018-10-11T21:09:00.968Z,9.73
2018-10-11T21:11:30.380Z,10.03
2018-10-11T21:13:59.817Z,8.63
2018-10-11T21:16:29.022Z,8.70
2018-10-11T21:18:58.419Z,8.20
2018-10-11T21:21:27.572Z,8.37
2018-10-11T21:23:56.609Z,6.73
2018-10-11T21:26:25.863Z,6.73
2018-10-11T21:28:55.239Z,6.60
2018-10-11T21:31:24.463Z,6.00
2018-10-11T21:33:53.871Z,5.97
2018-10-11T21:36:22.963Z,6.60
2018-10-11T21:38:51.885Z,6.50
2018-10-11T21:41:21.184Z,6.27
2018-10-11T21:43:50.548Z,5.67
2018-10-11T21:46:19.718Z,5.80
2018-10-11T21:48:48.979Z,5.87
2018-10-11T21:51:18.123Z,6.30
2018-10-11T21:53:47.590Z,5.83
2018-10-11T21:56:16.923Z,5.80
2018-10-11T21:58:46.276Z,6.23
2018-10-11T22:01:20.516Z,6.30
2018-10-11T22:03:49.600Z,6.43
2018-10-11T22:06:18.994Z,6.37
2018-10-11T22:08:48.419Z,6.27
2018-10-11T22:11:17.548Z,6.40
2018-10-11T22:13:46.897Z,6.20
2018-10-11T22:16:16.103Z,6.50
2018-10-11T22:18:45.187Z,5.93
2018-10-11T22:21:14.183Z,6.77
2018-10-11T22:23:44.046Z,6.07
2018-10-11T22:26:13.499Z,6.87
2018-10-11T22:28:42.707Z,6.70
2018-10-11T22:31:13.415Z,6.27
2018-10-11T22:33:43.047Z,5.83
2018-10-11T22:36:13.206Z,6.10
2018-10-11T22:38:42.660Z,7.23
2018-10-11T22:41:12.675Z,7.40
2018-10-11T22:43:42.586Z,6.77
2018-10-11T22:46:12.444Z,7.17
2018-10-11T22:48:41.943Z,6.70
2018-10-11T22:51:11.667Z,6.50
2018-10-11T22:53:41.008Z,7.00
2018-10-11T22:56:10.280Z,6.93
2018-10-11T22:58:43.361Z,6.83
2018-10-11T23:01:12.893Z,6.93
2018-10-11T23:03:42.008Z,6.80
2018-10-11T23:06:10.803Z,6.40
2018-10-11T23:08:39.860Z,6.80
2018-10-11T23:11:09.389Z,7.50
2018-10-11T23:13:38.718Z,7.83
2018-10-11T23:16:08.111Z,7.87
2018-10-11T23:18:37.582Z,8.27
2018-10-11T23:21:06.826Z,9.63
2018-10-11T23:23:36.406Z,9.33
2018-10-11T23:26:05.595Z,11.23
2018-10-11T23:28:34.527Z,9.60
2018-10-11T23:31:03.731Z,10.13
2018-10-11T23:33:33.028Z,11.10
2018-10-11T23:36:02.119Z,10.53
2018-10-11T23:38:31.271Z,11.73
2018-10-11T23:41:00.319Z,12.00
2018-10-11T23:43:29.435Z,13.07
2018-10-11T23:45:58.554Z,14.10
2018-10-11T23:48:27.551Z,12.57
2018-10-11T23:50:56.743Z,12.53
2018-10-11T23:53:25.762Z,14.53
2018-10-11T23:55:54.983Z,11.03
2018-10-11T23:58:24.422Z,10.73
